createdAt,value
2019-03-31T00:00:49.282Z,68.58
2019-03-31T00:03:16.264Z,68.48
2019-03-31T00:05:43.225Z,68.40
2019-03-31T00:08:10.098Z,68.47
2019-03-31T00:10:37.102Z,68.52
2019-03-31T00:13:04.060Z,68.53
2019-03-31T00:15:30.926Z,68.83
2019-03-31T00:17:57.879Z,68.83
2019-03-31T00:20:24.819Z,68.90
2019-03-31T00:22:51.690Z,69.05
2019-03-31T00:25:19.354Z,69.03
2019-03-31T00:27:46.233Z,68.98
2019-03-31T00:30:13.113Z,69.08
2019-03-31T00:32:40.091Z,69.32
2019-03-31T00:35:07.050Z,69.61
2019-03-31T00:37:34.061Z,69.82
2019-03-31T00:40:00.951Z,69.83
2019-03-31T00:42:27.869Z,69.90
2019-03-31T00:44:54.876Z,69.90
2019-03-31T00:47:21.873Z,70.04
2019-03-31T00:49:48.762Z,70.14
2019-03-31T00:52:15.754Z,70.24
2019-03-31T00:54:42.639Z,70.17
2019-03-31T00:57:09.518Z,70.01
2019-03-31T00:59:36.402Z,70.00
2019-03-31T01:02:09.245Z,70.12
2019-03-31T01:04:36.121Z,70.00
2019-03-31T01:07:03.815Z,69.96
2019-03-31T01:09:32.271Z,69.94
2019-03-31T01:11:59.235Z,69.83
2019-03-31T01:14:26.282Z,70.03
2019-03-31T01:16:53.297Z,70.31
2019-03-31T01:19:21.340Z,70.38
2019-03-31T01:21:48.216Z,70.20
2019-03-31T01:24:15.222Z,70.04
2019-03-31T01:26:42.288Z,69.88
2019-03-31T01:29:09.260Z,69.71
2019-03-31T01:31:49.382Z,69.61
2019-03-31T01:34:05.129Z,69.62
2019-03-31T01:36:32.018Z,69.57
2019-03-31T01:38:58.890Z,69.53
2019-03-31T01:41:25.785Z,69.53
2019-03-31T01:43:52.752Z,69.56
2019-03-31T01:46:19.722Z,69.59
2019-03-31T01:48:46.608Z,69.68
2019-03-31T01:51:13.500Z,69.82
2019-03-31T01:53:40.403Z,69.89
2019-03-31T01:56:07.398Z,69.81
2019-03-31T01:58:34.292Z,69.70
2019-03-31T02:01:03.254Z,69.68
2019-03-31T02:03:30.170Z,69.85
2019-03-31T02:05:57.148Z,69.95
2019-03-31T02:08:24.140Z,70.04
2019-03-31T02:10:51.017Z,70.25
2019-03-31T02:13:18.009Z,70.51
2019-03-31T02:15:44.931Z,70.50
2019-03-31T02:18:12.176Z,70.49
2019-03-31T02:20:39.210Z,70.64
2019-03-31T02:23:06.181Z,70.75
2019-03-31T02:25:33.188Z,70.62
2019-03-31T02:28:00.088Z,70.69
2019-03-31T02:30:27.086Z,70.65
2019-03-31T02:32:54.067Z,70.53
2019-03-31T02:35:21.035Z,70.19
2019-03-31T02:37:47.925Z,70.07
2019-03-31T02:40:18.384Z,70.16
2019-03-31T02:42:45.366Z,70.23
2019-03-31T02:45:12.503Z,70.21
2019-03-31T02:47:39.452Z,70.21
2019-03-31T02:50:07.047Z,70.49
2019-03-31T02:52:34.034Z,70.55
2019-03-31T02:55:00.941Z,70.61
2019-03-31T02:57:27.907Z,70.67
2019-03-31T02:59:54.795Z,70.67
2019-03-31T03:02:21.682Z,70.65
2019-03-31T03:04:48.806Z,70.47
2019-03-31T03:07:15.706Z,70.44
2019-03-31T03:09:42.601Z,70.50
2019-03-31T03:12:09.594Z,70.55
2019-03-31T03:14:37.078Z,70.54
2019-03-31T03:17:03.967Z,70.73
2019-03-31T03:19:30.941Z,70.87
2019-03-31T03:21:57.813Z,71.14
2019-03-31T03:24:24.897Z,71.23
2019-03-31T03:26:51.762Z,71.24
2019-03-31T03:29:18.658Z,71.18
2019-03-31T03:31:45.594Z,71.18
2019-03-31T03:34:12.606Z,71.14
2019-03-31T03:36:42.980Z,71.13
2019-03-31T03:39:08.279Z,71.19
2019-03-31T03:41:35.256Z,71.18
2019-03-31T03:44:02.870Z,71.21
2019-03-31T03:46:29.904Z,71.17
2019-03-31T03:48:56.849Z,71.14
2019-03-31T03:51:23.822Z,71.35
2019-03-31T03:53:50.799Z,71.49
2019-03-31T03:56:18.068Z,71.39
2019-03-31T03:58:45.035Z,71.57
2019-03-31T04:01:17.665Z,71.51
2019-03-31T04:03:44.622Z,71.56
2019-03-31T04:06:11.499Z,71.49
2019-03-31T04:08:38.472Z,71.39
2019-03-31T04:11:09.037Z,71.38
2019-03-31T04:13:36.006Z,71.43
2019-03-31T04:16:02.914Z,71.53
2019-03-31T04:18:29.935Z,71.58
2019-03-31T04:20:56.986Z,71.64
2019-03-31T04:23:23.856Z,71.99
2019-03-31T04:25:50.724Z,71.93
2019-03-31T04:28:17.585Z,71.86
2019-03-31T04:30:44.565Z,71.94
2019-03-31T04:33:11.437Z,71.98
2019-03-31T04:35:38.419Z,71.93
2019-03-31T04:38:05.402Z,71.93
2019-03-31T04:40:32.281Z,71.84
2019-03-31T04:42:59.282Z,71.77
2019-03-31T04:45:26.160Z,72.00
2019-03-31T04:47:53.022Z,72.02
2019-03-31T04:50:19.889Z,72.08
2019-03-31T04:52:46.790Z,72.17
2019-03-31T04:55:16.880Z,72.21
2019-03-31T04:57:43.872Z,72.18
2019-03-31T05:00:10.767Z,72.14
2019-03-31T05:02:37.665Z,72.19
2019-03-31T05:05:04.521Z,72.16
2019-03-31T05:07:31.399Z,72.19
2019-03-31T05:09:58.273Z,72.06
2019-03-31T05:12:25.152Z,71.98
2019-03-31T05:14:52.129Z,71.91
2019-03-31T05:17:19.008Z,72.05
2019-03-31T05:19:45.991Z,72.08
2019-03-31T05:22:12.963Z,72.10
2019-03-31T05:24:39.937Z,72.07
2019-03-31T05:27:06.811Z,72.08
2019-03-31T05:29:33.707Z,71.98
2019-03-31T05:32:00.571Z,71.79
2019-03-31T05:34:27.463Z,71.69
2019-03-31T05:36:54.435Z,71.53
2019-03-31T05:39:21.443Z,71.59
2019-03-31T05:41:48.423Z,71.73
2019-03-31T05:44:15.296Z,71.74
2019-03-31T05:46:42.164Z,71.80
2019-03-31T05:49:09.137Z,71.88
2019-03-31T05:51:36.031Z,71.84
2019-03-31T05:54:03.026Z,71.83
2019-03-31T05:56:29.913Z,71.93
2019-03-31T05:58:56.796Z,72.06
2019-03-31T06:01:23.725Z,72.06
2019-03-31T06:03:50.615Z,74.26
2019-03-31T06:06:17.584Z,75.69
2019-03-31T06:08:44.462Z,74.38
2019-03-31T06:11:11.324Z,72.25
2019-03-31T06:13:38.184Z,70.77
2019-03-31T06:16:05.067Z,69.69
2019-03-31T06:18:31.936Z,69.72
2019-03-31T06:20:58.825Z,68.35
2019-03-31T06:23:25.733Z,66.90
2019-03-31T06:25:52.698Z,66.16
2019-03-31T06:28:19.689Z,65.64
2019-03-31T06:30:46.663Z,65.45
2019-03-31T06:33:13.536Z,66.69
2019-03-31T06:35:40.411Z,68.47
2019-03-31T06:38:07.248Z,69.58
2019-03-31T06:40:34.209Z,66.73
2019-03-31T06:43:01.098Z,65.79
2019-03-31T06:45:27.972Z,62.54
2019-03-31T06:47:54.866Z,61.84
2019-03-31T06:50:21.744Z,63.86
2019-03-31T06:52:48.733Z,63.42
2019-03-31T06:55:18.222Z,62.34
2019-03-31T06:57:45.120Z,62.74
2019-03-31T07:00:11.979Z,62.83
2019-03-31T07:02:38.964Z,62.09
2019-03-31T07:05:06.244Z,61.56
2019-03-31T07:07:33.238Z,60.50
2019-03-31T07:10:00.280Z,61.28
2019-03-31T07:12:27.500Z,60.20
2019-03-31T07:14:54.466Z,59.80
2019-03-31T07:17:21.333Z,61.35
2019-03-31T07:19:48.347Z,59.98
2019-03-31T07:22:15.229Z,59.06
2019-03-31T07:24:42.128Z,60.57
2019-03-31T07:27:09.029Z,60.04
2019-03-31T07:29:35.999Z,59.13
2019-03-31T07:32:02.911Z,59.00
2019-03-31T07:34:29.893Z,59.29
2019-03-31T07:36:56.774Z,59.17
2019-03-31T07:39:23.824Z,59.59
2019-03-31T07:41:51.071Z,59.48
2019-03-31T07:44:18.025Z,59.67
2019-03-31T07:46:45.001Z,59.16
2019-03-31T07:49:11.880Z,59.78
2019-03-31T07:51:38.773Z,59.39
2019-03-31T07:54:05.654Z,58.21
2019-03-31T07:56:32.547Z,58.42
2019-03-31T07:58:59.448Z,57.55
2019-03-31T08:01:26.398Z,56.89
2019-03-31T08:03:53.276Z,57.07
2019-03-31T08:06:20.289Z,56.90
2019-03-31T08:08:47.167Z,55.74
2019-03-31T08:11:16.982Z,55.45
2019-03-31T08:13:42.893Z,54.77
2019-03-31T08:16:09.877Z,54.56
2019-03-31T08:18:36.867Z,53.98
2019-03-31T08:21:03.741Z,53.52
2019-03-31T08:23:30.720Z,56.03
2019-03-31T08:25:57.708Z,57.26
2019-03-31T08:28:24.697Z,54.84
2019-03-31T08:30:51.596Z,52.96
2019-03-31T08:33:18.588Z,53.05
2019-03-31T08:35:47.466Z,52.80
2019-03-31T08:38:14.263Z,52.64
2019-03-31T08:40:41.146Z,52.29
2019-03-31T08:43:08.131Z,52.82
2019-03-31T08:45:35.003Z,52.52
2019-03-31T08:48:01.998Z,51.80
2019-03-31T08:50:28.892Z,51.59
2019-03-31T08:52:55.782Z,51.13
2019-03-31T08:55:22.788Z,51.18
2019-03-31T08:57:49.773Z,51.01
2019-03-31T09:00:24.212Z,50.41
2019-03-31T09:02:51.088Z,50.04
2019-03-31T09:05:17.972Z,50.21
2019-03-31T09:07:44.834Z,49.91
2019-03-31T09:10:17.197Z,49.54
2019-03-31T09:12:44.206Z,49.38
2019-03-31T09:15:11.867Z,49.25
2019-03-31T09:17:38.750Z,48.56
2019-03-31T09:20:06.182Z,48.33
2019-03-31T09:22:33.071Z,48.59
2019-03-31T09:24:59.934Z,48.22
2019-03-31T09:27:26.806Z,48.13
2019-03-31T09:29:53.784Z,48.61
2019-03-31T09:32:20.791Z,48.52
2019-03-31T09:34:47.777Z,48.17
2019-03-31T09:37:14.739Z,47.69
2019-03-31T09:39:41.633Z,47.99
2019-03-31T09:42:08.628Z,47.78
2019-03-31T09:44:35.602Z,47.32
2019-03-31T09:47:02.508Z,47.44
2019-03-31T09:49:29.502Z,47.18
2019-03-31T09:51:56.518Z,46.54
2019-03-31T09:54:23.504Z,46.16
2019-03-31T09:56:50.431Z,45.07
2019-03-31T09:59:17.415Z,44.49
2019-03-31T10:01:44.394Z,44.01
2019-03-31T10:04:11.394Z,41.91
2019-03-31T10:06:38.361Z,41.94
2019-03-31T10:09:05.891Z,42.23
2019-03-31T10:11:32.881Z,42.68
2019-03-31T10:13:59.876Z,42.27
2019-03-31T10:16:26.752Z,42.36
2019-03-31T10:18:53.621Z,41.62
2019-03-31T10:21:20.505Z,41.61
2019-03-31T10:23:47.496Z,40.31
2019-03-31T10:26:16.092Z,40.69
2019-03-31T10:28:43.329Z,40.96
2019-03-31T10:31:10.343Z,39.55
2019-03-31T10:33:37.325Z,39.24
2019-03-31T10:36:04.293Z,39.67
2019-03-31T10:38:31.180Z,37.58
2019-03-31T10:40:58.090Z,35.03
2019-03-31T10:43:25.064Z,34.24
2019-03-31T10:45:51.985Z,34.50
2019-03-31T10:48:20.721Z,33.90
2019-03-31T10:50:47.697Z,34.56
2019-03-31T10:53:14.584Z,33.13
2019-03-31T10:55:41.490Z,33.29
2019-03-31T10:58:08.476Z,32.79
2019-03-31T11:00:35.515Z,30.97
2019-03-31T11:03:02.573Z,31.48
2019-03-31T11:05:29.551Z,30.72
2019-03-31T11:07:56.432Z,30.21
2019-03-31T11:10:23.269Z,30.16
2019-03-31T11:12:50.886Z,29.62
2019-03-31T11:15:18.078Z,29.81
2019-03-31T11:17:45.069Z,29.79
2019-03-31T11:20:11.960Z,29.06
2019-03-31T11:22:43.156Z,29.38
2019-03-31T11:25:20.667Z,30.15
2019-03-31T11:27:43.859Z,29.57
2019-03-31T11:30:10.237Z,29.49
2019-03-31T11:32:37.150Z,28.94
2019-03-31T11:35:04.082Z,29.33
2019-03-31T11:37:31.079Z,27.92
2019-03-31T11:39:57.977Z,28.08
2019-03-31T11:42:24.941Z,27.46
2019-03-31T11:44:51.839Z,26.69
2019-03-31T11:47:18.859Z,26.19
2019-03-31T11:49:45.777Z,26.94
2019-03-31T11:52:12.774Z,26.29
2019-03-31T11:54:39.684Z,26.72
2019-03-31T11:57:06.691Z,26.89
2019-03-31T11:59:33.687Z,27.51
2019-03-31T12:02:00.774Z,26.83
2019-03-31T12:04:27.737Z,25.57
2019-03-31T12:06:54.705Z,25.94
2019-03-31T12:09:21.582Z,25.52
2019-03-31T12:11:48.468Z,26.33
2019-03-31T12:14:15.357Z,26.23
2019-03-31T12:16:42.389Z,25.87
2019-03-31T12:19:09.288Z,26.26
2019-03-31T12:21:36.194Z,25.70
2019-03-31T12:24:03.098Z,25.90
2019-03-31T12:26:30.069Z,25.61
2019-03-31T12:28:57.074Z,25.73
2019-03-31T12:31:23.972Z,25.85
2019-03-31T12:33:50.956Z,25.63
2019-03-31T12:36:17.954Z,24.76
2019-03-31T12:38:44.944Z,24.71
2019-03-31T12:41:12.086Z,24.74
2019-03-31T12:43:39.080Z,25.12
2019-03-31T12:46:06.061Z,25.11
2019-03-31T12:48:33.056Z,24.53
2019-03-31T12:51:00.045Z,23.69
2019-03-31T12:53:26.952Z,23.65
2019-03-31T12:55:59.966Z,24.81
2019-03-31T12:58:22.664Z,24.36
2019-03-31T13:00:50.052Z,24.68
2019-03-31T13:03:16.942Z,23.50
2019-03-31T13:05:43.862Z,24.02
2019-03-31T13:08:10.882Z,24.05
2019-03-31T13:10:37.900Z,23.92
2019-03-31T13:13:04.912Z,24.19
2019-03-31T13:15:31.794Z,23.63
2019-03-31T13:17:58.684Z,22.90
2019-03-31T13:20:25.667Z,23.01
2019-03-31T13:22:52.684Z,22.63
2019-03-31T13:25:20.649Z,23.17
2019-03-31T13:27:47.544Z,23.32
2019-03-31T13:30:14.432Z,23.43
2019-03-31T13:32:41.414Z,22.74
2019-03-31T13:35:08.743Z,22.96
2019-03-31T13:37:35.911Z,23.57
2019-03-31T13:40:02.779Z,22.94
2019-03-31T13:42:29.753Z,24.49
2019-03-31T13:44:56.648Z,24.29
2019-03-31T13:47:23.529Z,23.18
2019-03-31T13:49:50.549Z,22.79
2019-03-31T13:52:17.542Z,23.40
2019-03-31T13:54:44.552Z,22.21
2019-03-31T13:57:12.088Z,21.68
2019-03-31T13:59:39.214Z,22.67
2019-03-31T14:02:06.283Z,22.22
2019-03-31T14:04:35.505Z,22.45
2019-03-31T14:07:04.465Z,22.18
2019-03-31T14:09:30.858Z,21.97
2019-03-31T14:11:57.727Z,22.09
2019-03-31T14:14:24.608Z,22.41
2019-03-31T14:16:51.490Z,22.64
2019-03-31T14:19:18.370Z,23.20
2019-03-31T14:21:45.282Z,23.17
2019-03-31T14:24:12.272Z,23.21
2019-03-31T14:26:39.248Z,22.46
2019-03-31T14:29:06.122Z,22.17
2019-03-31T14:31:33.036Z,22.41
2019-03-31T14:33:59.919Z,22.43
2019-03-31T14:36:26.940Z,22.32
2019-03-31T14:38:53.923Z,22.78
2019-03-31T14:41:20.789Z,23.04
2019-03-31T14:43:47.681Z,23.25
2019-03-31T14:46:14.550Z,23.18
2019-03-31T14:48:41.448Z,22.89
2019-03-31T14:51:08.338Z,23.09
2019-03-31T14:53:35.338Z,23.35
2019-03-31T14:56:02.326Z,22.62
2019-03-31T14:58:29.253Z,23.16
2019-03-31T15:00:56.181Z,23.69
2019-03-31T15:03:23.239Z,22.62
2019-03-31T15:05:50.241Z,22.59
2019-03-31T15:08:53.773Z,22.93
2019-03-31T15:11:11.302Z,22.57
2019-03-31T15:13:38.231Z,22.94
2019-03-31T15:16:05.192Z,22.87
2019-03-31T15:18:32.182Z,22.91
2019-03-31T15:20:59.157Z,23.37
2019-03-31T15:23:28.848Z,23.39
2019-03-31T15:26:01.261Z,23.69
2019-03-31T15:28:28.234Z,24.53
2019-03-31T15:30:55.110Z,23.87
2019-03-31T15:33:22.007Z,24.23
2019-03-31T15:35:48.890Z,24.18
2019-03-31T15:38:15.772Z,23.86
2019-03-31T15:40:42.929Z,24.11
2019-03-31T15:43:09.793Z,24.15
2019-03-31T15:45:36.693Z,24.11
2019-03-31T15:48:03.711Z,24.11
2019-03-31T15:50:30.688Z,24.67
2019-03-31T15:52:57.562Z,24.79
2019-03-31T15:55:24.437Z,23.92
2019-03-31T15:57:51.777Z,24.10
2019-03-31T16:00:18.786Z,23.87
2019-03-31T16:02:45.678Z,24.48
2019-03-31T16:05:12.973Z,24.75
2019-03-31T16:07:47.696Z,24.30
2019-03-31T16:10:18.258Z,25.03
2019-03-31T16:12:44.956Z,24.72
2019-03-31T16:15:11.672Z,25.12
2019-03-31T16:17:38.278Z,25.21
2019-03-31T16:20:04.896Z,26.07
2019-03-31T16:22:31.516Z,25.60
2019-03-31T16:27:37.850Z,25.28
2019-03-31T16:30:04.596Z,25.87
2019-03-31T16:32:31.343Z,25.99
2019-03-31T16:34:58.065Z,26.60
2019-03-31T16:37:24.762Z,27.04
2019-03-31T16:39:51.383Z,26.98
2019-03-31T16:42:18.259Z,27.05
2019-03-31T16:44:57.434Z,26.94
2019-03-31T16:47:20.128Z,27.37
2019-03-31T16:49:46.842Z,28.41
2019-03-31T16:52:13.562Z,28.86
2019-03-31T16:54:40.238Z,28.53
2019-03-31T16:57:06.970Z,29.70
2019-03-31T16:59:33.684Z,30.48
2019-03-31T17:02:00.441Z,31.05
2019-03-31T17:04:27.141Z,30.58
2019-03-31T17:06:53.858Z,31.66
2019-03-31T17:09:20.547Z,32.13
2019-03-31T17:11:47.260Z,33.35
2019-03-31T17:14:13.887Z,33.61
2019-03-31T17:16:40.521Z,34.34
2019-03-31T17:19:07.150Z,34.96
2019-03-31T17:21:33.876Z,34.55
2019-03-31T17:24:00.598Z,34.93
2019-03-31T17:26:27.336Z,35.13
2019-03-31T17:28:54.038Z,35.48
2019-03-31T17:31:20.686Z,35.64
2019-03-31T17:33:47.398Z,36.05
2019-03-31T17:36:14.043Z,36.46
2019-03-31T17:38:40.758Z,36.50
2019-03-31T17:41:07.520Z,36.74
2019-03-31T17:43:34.357Z,37.62
2019-03-31T17:46:01.017Z,38.57
2019-03-31T17:48:27.736Z,39.58
2019-03-31T17:50:54.465Z,40.19
2019-03-31T17:53:21.177Z,41.13
2019-03-31T17:55:47.810Z,42.17
2019-03-31T17:58:14.444Z,42.89
2019-03-31T18:00:41.281Z,43.67
2019-03-31T18:03:07.925Z,44.38
2019-03-31T18:05:34.659Z,44.80
2019-03-31T18:08:01.407Z,45.16
2019-03-31T18:10:28.139Z,45.51
2019-03-31T18:12:55.433Z,45.96
2019-03-31T18:15:22.066Z,46.29
2019-03-31T18:17:48.681Z,46.79
2019-03-31T18:20:15.403Z,47.19
2019-03-31T18:22:42.143Z,47.51
2019-03-31T18:25:09.010Z,48.54
2019-03-31T18:27:35.754Z,48.47
2019-03-31T18:30:02.465Z,48.64
2019-03-31T18:32:29.157Z,49.43
2019-03-31T18:34:55.861Z,49.54
2019-03-31T18:37:22.628Z,49.95
2019-03-31T18:39:49.376Z,50.28
2019-03-31T18:42:15.873Z,50.48
2019-03-31T18:44:42.569Z,50.75
2019-03-31T18:47:09.330Z,50.97
2019-03-31T18:49:36.059Z,51.18
2019-03-31T18:52:02.828Z,51.80
2019-03-31T18:54:49.050Z,51.93
2019-03-31T19:00:36.225Z,52.44
2019-03-31T19:06:15.761Z,52.83
2019-03-31T19:08:51.356Z,53.09
2019-03-31T19:11:37.560Z,53.18
2019-03-31T19:14:23.900Z,53.35
2019-03-31T19:17:18.411Z,53.99
2019-03-31T19:20:04.613Z,54.55
2019-03-31T19:22:50.811Z,54.37
2019-03-31T19:25:39.595Z,54.46
2019-03-31T19:28:25.849Z,55.08
2019-03-31T19:31:12.064Z,55.32
2019-03-31T19:33:58.317Z,55.89
2019-03-31T19:36:44.587Z,56.03
2019-03-31T19:39:30.836Z,56.16
2019-03-31T19:42:17.077Z,56.12
2019-03-31T19:45:03.317Z,56.27
2019-03-31T19:47:40.995Z,56.97
2019-03-31T19:50:27.230Z,57.49
2019-03-31T19:53:13.424Z,57.60
2019-03-31T19:55:47.089Z,57.58
2019-03-31T19:58:33.292Z,57.24
2019-03-31T20:01:19.521Z,56.85
2019-03-31T20:04:05.713Z,56.78
2019-03-31T20:06:51.896Z,56.91
2019-03-31T20:09:38.125Z,57.05
2019-03-31T20:12:24.364Z,57.25
2019-03-31T20:15:10.544Z,57.37
2019-03-31T20:17:56.657Z,57.83
2019-03-31T20:20:42.910Z,57.75
2019-03-31T20:23:29.095Z,57.90
2019-03-31T20:26:13.458Z,58.06
2019-03-31T20:28:59.567Z,58.24
2019-03-31T20:31:45.769Z,58.17
2019-03-31T20:34:31.986Z,58.07
2019-03-31T20:37:18.194Z,58.11
2019-03-31T20:40:04.392Z,58.25
2019-03-31T20:42:50.618Z,58.85
2019-03-31T20:45:17.328Z,58.79
2019-03-31T20:47:44.088Z,58.88
2019-03-31T20:50:10.808Z,58.97
2019-03-31T20:52:37.514Z,59.26
2019-03-31T20:55:15.623Z,59.38
2019-03-31T20:57:39.215Z,59.62
2019-03-31T21:00:05.958Z,59.69
2019-03-31T21:02:32.604Z,59.88
2019-03-31T21:04:59.318Z,59.81
2019-03-31T21:07:26.027Z,59.84
2019-03-31T21:09:52.631Z,59.94
2019-03-31T21:12:19.257Z,59.97
2019-03-31T21:14:45.982Z,60.04
2019-03-31T21:17:12.673Z,60.24
2019-03-31T21:19:39.286Z,60.31
2019-03-31T21:22:05.895Z,60.40
2019-03-31T21:24:32.605Z,60.59
2019-03-31T21:26:59.301Z,60.64
2019-03-31T21:29:26.034Z,60.63
2019-03-31T21:31:52.739Z,60.66
2019-03-31T21:34:19.374Z,60.69
2019-03-31T21:36:46.078Z,60.57
2019-03-31T21:39:12.685Z,61.00
2019-03-31T21:41:39.309Z,61.18
2019-03-31T21:44:05.927Z,62.01
2019-03-31T21:46:32.558Z,62.32
2019-03-31T21:48:59.178Z,62.20
2019-03-31T21:51:25.887Z,62.13
2019-03-31T21:53:52.500Z,61.97
2019-03-31T21:56:19.137Z,62.00
2019-03-31T21:58:45.841Z,61.98
2019-03-31T22:01:12.583Z,62.01
2019-03-31T22:03:39.312Z,62.11
2019-03-31T22:06:05.912Z,62.54
2019-03-31T22:08:32.640Z,62.76
2019-03-31T22:10:59.276Z,62.72
2019-03-31T22:13:25.982Z,62.69
2019-03-31T22:15:52.588Z,62.80
2019-03-31T22:18:19.208Z,62.68
2019-03-31T22:20:47.420Z,62.75
2019-03-31T22:23:20.882Z,62.78
2019-03-31T22:25:47.528Z,63.05
2019-03-31T22:28:14.141Z,63.33
2019-03-31T22:30:40.748Z,63.23
2019-03-31T22:33:07.427Z,63.32
2019-03-31T22:35:34.122Z,63.36
2019-03-31T22:38:02.413Z,63.47
2019-03-31T22:40:38.966Z,63.50
2019-03-31T22:43:07.849Z,63.55
2019-03-31T22:45:43.812Z,63.74
2019-03-31T22:48:10.436Z,63.94
2019-03-31T22:50:37.040Z,63.83
2019-03-31T22:53:03.669Z,64.00
2019-03-31T22:55:30.356Z,64.34
2019-03-31T22:57:56.963Z,64.67
2019-03-31T23:00:27.637Z,64.65
2019-03-31T23:02:54.228Z,64.18
2019-03-31T23:05:20.829Z,63.84
2019-03-31T23:07:47.423Z,63.26
2019-03-31T23:10:18.271Z,62.71
2019-03-31T23:12:44.901Z,62.14
2019-03-31T23:15:11.494Z,61.42
2019-03-31T23:17:38.091Z,60.48
2019-03-31T23:20:04.721Z,59.85
2019-03-31T23:22:31.454Z,59.26
2019-03-31T23:25:05.435Z,58.78
2019-03-31T23:27:32.133Z,58.27
2019-03-31T23:29:58.723Z,58.02
2019-03-31T23:32:25.331Z,57.70
2019-03-31T23:34:51.922Z,57.50
2019-03-31T23:37:18.568Z,57.52
2019-03-31T23:39:45.251Z,57.28
2019-03-31T23:42:11.850Z,57.21
2019-03-31T23:44:38.444Z,57.28
2019-03-31T23:47:05.051Z,57.14
2019-03-31T23:49:31.630Z,57.23
2019-03-31T23:51:58.258Z,57.01
2019-03-31T23:54:24.958Z,57.10
2019-03-31T23:56:51.561Z,57.19
2019-03-31T23:59:18.177Z,57.38
